sensor_id;sensor_type;location;lat;lon;timestamp;temperature;humidity
3310;DHT22;1667;53.238;10.394;2022-09-28T00:03:58;13.00;99.90
3310;DHT22;1667;53.238;10.394;2022-09-28T00:08:57;12.90;99.90
3310;DHT22;1667;53.238;10.394;2022-09-28T00:13:59;12.90;99.90
3310;DHT22;1667;53.238;10.394;2022-09-28T00:19:01;12.90;99.90
3310;DHT22;1667;53.238;10.394;2022-09-28T00:24:02;12.80;99.90
3310;DHT22;1667;53.238;10.394;2022-09-28T00:29:20;12.80;99.90
3310;DHT22;1667;53.238;10.394;2022-09-28T00:34:20;12.80;99.90
3310;DHT22;1667;53.238;10.394;2022-09-28T00:39:19;12.70;99.90
3310;DHT22;1667;53.238;10.394;2022-09-28T00:44:37;12.70;99.90
3310;DHT22;1667;53.238;10.394;2022-09-28T00:49:43;12.70;99.90
3310;DHT22;1667;53.238;10.394;2022-09-28T00:54:44;12.70;99.90
3310;DHT22;1667;53.238;10.394;2022-09-28T00:59:43;12.60;99.90
3310;DHT22;1667;53.238;10.394;2022-09-28T01:04:43;12.60;99.90
3310;DHT22;1667;53.238;10.394;2022-09-28T01:09:42;12.50;99.90
3310;DHT22;1667;53.238;10.394;2022-09-28T01:14:42;12.40;99.90
3310;DHT22;1667;53.238;10.394;2022-09-28T01:20:22;12.40;99.90
3310;DHT22;1667;53.238;10.394;2022-09-28T01:25:29;12.40;99.90
3310;DHT22;1667;53.238;10.394;2022-09-28T01:30:39;12.30;99.90
3310;DHT22;1667;53.238;10.394;2022-09-28T01:35:41;12.30;99.90
3310;DHT22;1667;53.238;10.394;2022-09-28T01:40:42;12.20;99.90
3310;DHT22;1667;53.238;10.394;2022-09-28T01:45:44;12.20;99.90
3310;DHT22;1667;53.238;10.394;2022-09-28T01:50:46;12.20;99.90
3310;DHT22;1667;53.238;10.394;2022-09-28T01:55:48;12.20;99.90
3310;DHT22;1667;53.238;10.394;2022-09-28T02:00:56;12.20;99.90
3310;DHT22;1667;53.238;10.394;2022-09-28T02:06:00;12.20;99.90
3310;DHT22;1667;53.238;10.394;2022-09-28T02:11:05;12.20;99.90
3310;DHT22;1667;53.238;10.394;2022-09-28T02:16:12;11.90;99.90
3310;DHT22;1667;53.238;10.394;2022-09-28T02:21:16;12.20;99.90
3310;DHT22;1667;53.238;10.394;2022-09-28T02:26:22;12.10;99.90
3310;DHT22;1667;53.238;10.394;2022-09-28T02:31:23;12.10;99.90
3310;DHT22;1667;53.238;10.394;2022-09-28T02:36:23;12.10;99.90
3310;DHT22;1667;53.238;10.394;2022-09-28T02:41:34;12.20;99.90
3310;DHT22;1667;53.238;10.394;2022-09-28T02:46:44;12.20;99.90
3310;DHT22;1667;53.238;10.394;2022-09-28T02:52:02;12.20;99.90
3310;DHT22;1667;53.238;10.394;2022-09-28T02:57:11;12.20;99.90
3310;DHT22;1667;53.238;10.394;2022-09-28T03:02:19;12.20;99.90
3310;DHT22;1667;53.238;10.394;2022-09-28T03:07:23;12.20;99.90
3310;DHT22;1667;53.238;10.394;2022-09-28T03:12:24;12.20;99.90
3310;DHT22;1667;53.238;10.394;2022-09-28T03:17:27;12.10;99.90
3310;DHT22;1667;53.238;10.394;2022-09-28T03:22:25;12.20;99.90
3310;DHT22;1667;53.238;10.394;2022-09-28T03:27:23;12.10;99.90
3310;DHT22;1667;53.238;10.394;2022-09-28T03:32:22;12.10;99.90
3310;DHT22;1667;53.238;10.394;2022-09-28T03:37:22;12.20;99.90
3310;DHT22;1667;53.238;10.394;2022-09-28T03:42:20;12.20;99.90
3310;DHT22;1667;53.238;10.394;2022-09-28T03:47:20;12.20;99.90
3310;DHT22;1667;53.238;10.394;2022-09-28T03:52:18;12.20;99.90
3310;DHT22;1667;53.238;10.394;2022-09-28T03:57:18;12.20;99.90
3310;DHT22;1667;53.238;10.394;2022-09-28T04:02:16;12.10;99.90
3310;DHT22;1667;53.238;10.394;2022-09-28T04:07:15;12.10;99.90
3310;DHT22;1667;53.238;10.394;2022-09-28T04:12:13;12.10;99.90
3310;DHT22;1667;53.238;10.394;2022-09-28T04:17:13;12.10;99.90
3310;DHT22;1667;53.238;10.394;2022-09-28T04:22:11;12.10;99.90
3310;DHT22;1667;53.238;10.394;2022-09-28T04:27:10;12.20;99.90
3310;DHT22;1667;53.238;10.394;2022-09-28T04:32:27;12.20;99.90
3310;DHT22;1667;53.238;10.394;2022-09-28T04:37:25;12.10;99.90
3310;DHT22;1667;53.238;10.394;2022-09-28T04:42:24;12.10;99.90
3310;DHT22;1667;53.238;10.394;2022-09-28T04:47:22;12.20;99.90
3310;DHT22;1667;53.238;10.394;2022-09-28T04:52:50;12.20;99.90
3310;DHT22;1667;53.238;10.394;2022-09-28T04:57:48;12.20;99.90
3310;DHT22;1667;53.238;10.394;2022-09-28T05:02:46;12.10;99.90
3310;DHT22;1667;53.238;10.394;2022-09-28T05:08:25;12.10;99.90
3310;DHT22;1667;53.238;10.394;2022-09-28T05:13:24;12.10;99.90
3310;DHT22;1667;53.238;10.394;2022-09-28T05:18:23;12.10;99.90
3310;DHT22;1667;53.238;10.394;2022-09-28T05:23:32;12.10;99.90
3310;DHT22;1667;53.238;10.394;2022-09-28T05:28:32;12.10;99.90
3310;DHT22;1667;53.238;10.394;2022-09-28T05:33:50;12.10;99.90
3310;DHT22;1667;53.238;10.394;2022-09-28T05:38:49;12.10;99.90
3310;DHT22;1667;53.238;10.394;2022-09-28T05:43:48;12.10;99.90
3310;DHT22;1667;53.238;10.394;2022-09-28T05:48:48;12.10;99.90
3310;DHT22;1667;53.238;10.394;2022-09-28T05:53:48;12.10;99.90
3310;DHT22;1667;53.238;10.394;2022-09-28T05:58:47;12.10;99.90
3310;DHT22;1667;53.238;10.394;2022-09-28T06:03:48;12.10;99.90
3310;DHT22;1667;53.238;10.394;2022-09-28T06:08:49;12.10;99.90
3310;DHT22;1667;53.238;10.394;2022-09-28T06:14:05;12.10;99.90
3310;DHT22;1667;53.238;10.394;2022-09-28T06:19:03;12.10;99.90
3310;DHT22;1667;53.238;10.394;2022-09-28T06:24:14;12.10;99.90
3310;DHT22;1667;53.238;10.394;2022-09-28T06:29:12;12.20;99.90
3310;DHT22;1667;53.238;10.394;2022-09-28T06:34:16;12.10;99.90
3310;DHT22;1667;53.238;10.394;2022-09-28T06:39:16;12.20;99.90
3310;DHT22;1667;53.238;10.394;2022-09-28T06:44:14;12.20;99.90
3310;DHT22;1667;53.238;10.394;2022-09-28T06:49:50;12.30;99.90
3310;DHT22;1667;53.238;10.394;2022-09-28T06:55:20;12.30;99.90
3310;DHT22;1667;53.238;10.394;2022-09-28T07:00:23;12.20;99.90
3310;DHT22;1667;53.238;10.394;2022-09-28T07:05:21;12.20;99.90
3310;DHT22;1667;53.238;10.394;2022-09-28T07:10:33;12.30;99.90
3310;DHT22;1667;53.238;10.394;2022-09-28T07:15:53;12.30;99.90
3310;DHT22;1667;53.238;10.394;2022-09-28T07:20:54;12.30;99.90
3310;DHT22;1667;53.238;10.394;2022-09-28T07:25:55;12.30;99.90
3310;DHT22;1667;53.238;10.394;2022-09-28T07:31:01;12.40;99.90
3310;DHT22;1667;53.238;10.394;2022-09-28T07:36:19;12.30;99.90
3310;DHT22;1667;53.238;10.394;2022-09-28T07:41:21;12.40;99.90
3310;DHT22;1667;53.238;10.394;2022-09-28T07:46:31;12.50;99.90
3310;DHT22;1667;53.238;10.394;2022-09-28T07:51:35;12.60;99.90
3310;DHT22;1667;53.238;10.394;2022-09-28T07:57:06;12.70;99.90
3310;DHT22;1667;53.238;10.394;2022-09-28T08:02:20;12.70;99.90
3310;DHT22;1667;53.238;10.394;2022-09-28T08:07:18;12.80;99.90
3310;DHT22;1667;53.238;10.394;2022-09-28T08:12:28;12.90;99.90
3310;DHT22;1667;53.238;10.394;2022-09-28T08:17:48;13.00;99.90
3310;DHT22;1667;53.238;10.394;2022-09-28T08:22:49;13.10;99.90
3310;DHT22;1667;53.238;10.394;2022-09-28T08:27:50;13.20;99.90
3310;DHT22;1667;53.238;10.394;2022-09-28T08:32:49;13.30;99.90
3310;DHT22;1667;53.238;10.394;2022-09-28T08:38:06;13.40;99.90
3310;DHT22;1667;53.238;10.394;2022-09-28T08:43:51;13.50;99.90
3310;DHT22;1667;53.238;10.394;2022-09-28T08:49:08;13.50;99.90
3310;DHT22;1667;53.238;10.394;2022-09-28T08:54:40;13.60;99.90
3310;DHT22;1667;53.238;10.394;2022-09-28T08:59:51;13.70;99.90
3310;DHT22;1667;53.238;10.394;2022-09-28T09:04:56;13.80;99.90
3310;DHT22;1667;53.238;10.394;2022-09-28T09:10:12;13.90;99.90
3310;DHT22;1667;53.238;10.394;2022-09-28T09:15:23;14.00;99.90
3310;DHT22;1667;53.238;10.394;2022-09-28T09:20:35;14.10;99.90
3310;DHT22;1667;53.238;10.394;2022-09-28T09:25:45;14.20;99.90
3310;DHT22;1667;53.238;10.394;2022-09-28T09:30:54;14.20;99.90
3310;DHT22;1667;53.238;10.394;2022-09-28T09:36:05;14.30;99.90
3310;DHT22;1667;53.238;10.394;2022-09-28T09:41:36;14.40;99.90
3310;DHT22;1667;53.238;10.394;2022-09-28T09:46:59;14.40;99.90
3310;DHT22;1667;53.238;10.394;2022-09-28T09:52:22;14.40;99.90
3310;DHT22;1667;53.238;10.394;2022-09-28T09:57:24;14.40;99.90
3310;DHT22;1667;53.238;10.394;2022-09-28T10:02:34;14.40;99.90
3310;DHT22;1667;53.238;10.394;2022-09-28T10:07:43;14.40;99.90
3310;DHT22;1667;53.238;10.394;2022-09-28T10:12:43;14.50;99.90
3310;DHT22;1667;53.238;10.394;2022-09-28T10:17:44;14.50;99.90
3310;DHT22;1667;53.238;10.394;2022-09-28T10:23:02;14.60;99.90
3310;DHT22;1667;53.238;10.394;2022-09-28T10:28:04;14.60;99.90
3310;DHT22;1667;53.238;10.394;2022-09-28T10:33:28;14.60;99.90
3310;DHT22;1667;53.238;10.394;2022-09-28T10:38:32;14.60;99.90
3310;DHT22;1667;53.238;10.394;2022-09-28T10:43:38;14.70;99.90
3310;DHT22;1667;53.238;10.394;2022-09-28T10:48:49;14.70;99.90
3310;DHT22;1667;53.238;10.394;2022-09-28T10:54:00;14.70;99.90
3310;DHT22;1667;53.238;10.394;2022-09-28T10:59:38;14.70;99.90
3310;DHT22;1667;53.238;10.394;2022-09-28T11:04:53;14.80;99.90
3310;DHT22;1667;53.238;10.394;2022-09-28T11:09:53;14.80;99.90
3310;DHT22;1667;53.238;10.394;2022-09-28T11:14:57;14.80;99.90
3310;DHT22;1667;53.238;10.394;2022-09-28T11:20:00;14.90;99.90
3310;DHT22;1667;53.238;10.394;2022-09-28T11:25:25;14.90;99.90
3310;DHT22;1667;53.238;10.394;2022-09-28T11:30:26;15.00;99.90
3310;DHT22;1667;53.238;10.394;2022-09-28T11:36:02;15.10;99.90
3310;DHT22;1667;53.238;10.394;2022-09-28T11:46:29;15.30;99.90
3310;DHT22;1667;53.238;10.394;2022-09-28T11:51:39;15.40;99.90
3310;DHT22;1667;53.238;10.394;2022-09-28T11:56:40;15.40;99.90
3310;DHT22;1667;53.238;10.394;2022-09-28T12:01:44;15.50;99.90
3310;DHT22;1667;53.238;10.394;2022-09-28T12:07:07;15.60;99.90
3310;DHT22;1667;53.238;10.394;2022-09-28T12:12:16;15.70;99.90
3310;DHT22;1667;53.238;10.394;2022-09-28T12:17:21;15.80;99.90
3310;DHT22;1667;53.238;10.394;2022-09-28T12:22:24;15.90;99.90
3310;DHT22;1667;53.238;10.394;2022-09-28T12:27:31;15.90;99.90
3310;DHT22;1667;53.238;10.394;2022-09-28T12:32:38;15.90;99.90
3310;DHT22;1667;53.238;10.394;2022-09-28T12:37:53;16.00;99.90
3310;DHT22;1667;53.238;10.394;2022-09-28T12:43:13;16.00;99.90
3310;DHT22;1667;53.238;10.394;2022-09-28T12:53:53;15.90;99.90
3310;DHT22;1667;53.238;10.394;2022-09-28T12:59:06;16.00;99.90
3310;DHT22;1667;53.238;10.394;2022-09-28T13:04:22;15.90;99.90
3310;DHT22;1667;53.238;10.394;2022-09-28T13:09:27;15.80;99.90
3310;DHT22;1667;53.238;10.394;2022-09-28T13:15:04;15.70;99.90
3310;DHT22;1667;53.238;10.394;2022-09-28T13:20:16;15.70;99.90
3310;DHT22;1667;53.238;10.394;2022-09-28T13:25:21;15.70;99.90
3310;DHT22;1667;53.238;10.394;2022-09-28T13:30:22;15.60;99.90
3310;DHT22;1667;53.238;10.394;2022-09-28T13:35:21;15.60;99.90
3310;DHT22;1667;53.238;10.394;2022-09-28T13:46:09;15.70;99.90
3310;DHT22;1667;53.238;10.394;2022-09-28T13:51:29;15.60;99.90
3310;DHT22;1667;53.238;10.394;2022-09-28T13:56:45;15.60;99.90
3310;DHT22;1667;53.238;10.394;2022-09-28T14:01:50;15.60;99.90
3310;DHT22;1667;53.238;10.394;2022-09-28T14:06:54;15.70;99.90
3310;DHT22;1667;53.238;10.394;2022-09-28T14:11:56;15.70;99.90
3310;DHT22;1667;53.238;10.394;2022-09-28T14:17:43;15.70;99.90
3310;DHT22;1667;53.238;10.394;2022-09-28T14:28:39;15.70;99.90
3310;DHT22;1667;53.238;10.394;2022-09-28T14:33:39;15.70;99.90
3310;DHT22;1667;53.238;10.394;2022-09-28T14:38:45;15.80;99.90
3310;DHT22;1667;53.238;10.394;2022-09-28T14:44:07;15.80;99.90
3310;DHT22;1667;53.238;10.394;2022-09-28T14:54:51;16.00;99.90
3310;DHT22;1667;53.238;10.394;2022-09-28T14:59:52;16.10;99.90
3310;DHT22;1667;53.238;10.394;2022-09-28T15:04:54;16.10;99.90
3310;DHT22;1667;53.238;10.394;2022-09-28T15:09:56;16.10;99.90
3310;DHT22;1667;53.238;10.394;2022-09-28T15:14:59;16.20;99.90
3310;DHT22;1667;53.238;10.394;2022-09-28T15:25:31;16.20;99.90
3310;DHT22;1667;53.238;10.394;2022-09-28T15:30:33;16.20;99.90
3310;DHT22;1667;53.238;10.394;2022-09-28T15:35:32;16.20;99.90
3310;DHT22;1667;53.238;10.394;2022-09-28T15:40:33;16.20;99.90
3310;DHT22;1667;53.238;10.394;2022-09-28T15:45:36;16.20;99.90
3310;DHT22;1667;53.238;10.394;2022-09-28T15:50:36;16.20;99.90
3310;DHT22;1667;53.238;10.394;2022-09-28T15:55:43;16.10;99.90
3310;DHT22;1667;53.238;10.394;2022-09-28T16:00:44;16.10;99.90
3310;DHT22;1667;53.238;10.394;2022-09-28T16:05:44;16.10;99.90
3310;DHT22;1667;53.238;10.394;2022-09-28T16:16:15;16.10;99.90
3310;DHT22;1667;53.238;10.394;2022-09-28T16:21:39;16.00;99.90
3310;DHT22;1667;53.238;10.394;2022-09-28T16:26:39;16.00;99.90
3310;DHT22;1667;53.238;10.394;2022-09-28T16:31:39;16.00;99.90
3310;DHT22;1667;53.238;10.394;2022-09-28T16:36:41;15.90;99.90
3310;DHT22;1667;53.238;10.394;2022-09-28T16:41:45;15.90;99.90
3310;DHT22;1667;53.238;10.394;2022-09-28T16:46:46;15.80;99.90
3310;DHT22;1667;53.238;10.394;2022-09-28T16:51:45;15.70;99.90
3310;DHT22;1667;53.238;10.394;2022-09-28T16:56:43;15.70;99.90
3310;DHT22;1667;53.238;10.394;2022-09-28T17:01:41;15.60;99.90
3310;DHT22;1667;53.238;10.394;2022-09-28T17:06:41;15.50;99.90
3310;DHT22;1667;53.238;10.394;2022-09-28T17:11:39;15.40;99.90
3310;DHT22;1667;53.238;10.394;2022-09-28T17:16:38;15.30;99.90
3310;DHT22;1667;53.238;10.394;2022-09-28T17:21:58;15.20;99.90
3310;DHT22;1667;53.238;10.394;2022-09-28T17:26:56;15.10;99.90
3310;DHT22;1667;53.238;10.394;2022-09-28T17:31:56;15.10;99.90
3310;DHT22;1667;53.238;10.394;2022-09-28T17:36:54;14.90;99.90
3310;DHT22;1667;53.238;10.394;2022-09-28T17:41:54;14.90;99.90
3310;DHT22;1667;53.238;10.394;2022-09-28T17:46:52;14.80;99.90
3310;DHT22;1667;53.238;10.394;2022-09-28T17:51:50;14.70;99.90
3310;DHT22;1667;53.238;10.394;2022-09-28T17:56:48;14.60;99.90
3310;DHT22;1667;53.238;10.394;2022-09-28T18:01:48;14.50;99.90
3310;DHT22;1667;53.238;10.394;2022-09-28T18:06:46;14.40;99.90
3310;DHT22;1667;53.238;10.394;2022-09-28T18:11:45;14.30;99.90
3310;DHT22;1667;53.238;10.394;2022-09-28T18:16:46;14.20;99.90
3310;DHT22;1667;53.238;10.394;2022-09-28T18:21:45;14.10;99.90
3310;DHT22;1667;53.238;10.394;2022-09-28T18:26:44;14.00;99.90
3310;DHT22;1667;53.238;10.394;2022-09-28T18:31:42;13.90;99.90
3310;DHT22;1667;53.238;10.394;2022-09-28T18:36:40;13.80;99.90
3310;DHT22;1667;53.238;10.394;2022-09-28T18:41:40;13.70;99.90
3310;DHT22;1667;53.238;10.394;2022-09-28T18:46:41;13.60;99.90
3310;DHT22;1667;53.238;10.394;2022-09-28T18:51:39;13.60;99.90
3310;DHT22;1667;53.238;10.394;2022-09-28T18:56:38;13.50;99.90
3310;DHT22;1667;53.238;10.394;2022-09-28T19:01:37;13.40;99.90
3310;DHT22;1667;53.238;10.394;2022-09-28T19:06:38;13.30;99.90
3310;DHT22;1667;53.238;10.394;2022-09-28T19:11:38;13.20;99.90
3310;DHT22;1667;53.238;10.394;2022-09-28T19:16:37;13.20;99.90
3310;DHT22;1667;53.238;10.394;2022-09-28T19:21:35;13.10;99.90
3310;DHT22;1667;53.238;10.394;2022-09-28T19:26:33;13.00;99.90
3310;DHT22;1667;53.238;10.394;2022-09-28T19:31:32;12.90;99.90
3310;DHT22;1667;53.238;10.394;2022-09-28T19:36:31;12.90;99.90
3310;DHT22;1667;53.238;10.394;2022-09-28T19:41:31;12.80;99.90
3310;DHT22;1667;53.238;10.394;2022-09-28T19:46:42;12.70;99.90
3310;DHT22;1667;53.238;10.394;2022-09-28T19:51:40;12.60;99.90
3310;DHT22;1667;53.238;10.394;2022-09-28T19:56:59;12.60;99.90
3310;DHT22;1667;53.238;10.394;2022-09-28T20:02:06;12.50;99.90
3310;DHT22;1667;53.238;10.394;2022-09-28T20:07:04;12.40;99.90
3310;DHT22;1667;53.238;10.394;2022-09-28T20:12:02;12.30;99.90
3310;DHT22;1667;53.238;10.394;2022-09-28T20:17:01;12.30;99.90
3310;DHT22;1667;53.238;10.394;2022-09-28T20:22:00;12.30;99.90
3310;DHT22;1667;53.238;10.394;2022-09-28T20:26:59;12.20;99.90
3310;DHT22;1667;53.238;10.394;2022-09-28T20:31:58;12.10;99.90
3310;DHT22;1667;53.238;10.394;2022-09-28T20:36:56;12.10;99.90
3310;DHT22;1667;53.238;10.394;2022-09-28T20:41:56;12.00;99.90
3310;DHT22;1667;53.238;10.394;2022-09-28T20:46:54;12.00;99.90
3310;DHT22;1667;53.238;10.394;2022-09-28T20:51:52;11.90;99.90
3310;DHT22;1667;53.238;10.394;2022-09-28T20:56:50;11.90;99.90
3310;DHT22;1667;53.238;10.394;2022-09-28T21:01:50;11.80;99.90
3310;DHT22;1667;53.238;10.394;2022-09-28T21:06:48;11.80;99.90
3310;DHT22;1667;53.238;10.394;2022-09-28T21:11:47;11.70;99.90
3310;DHT22;1667;53.238;10.394;2022-09-28T21:16:45;11.70;99.90
3310;DHT22;1667;53.238;10.394;2022-09-28T21:21:45;11.60;99.90
3310;DHT22;1667;53.238;10.394;2022-09-28T21:26:44;11.60;99.90
3310;DHT22;1667;53.238;10.394;2022-09-28T21:31:43;11.50;99.90
3310;DHT22;1667;53.238;10.394;2022-09-28T21:36:42;11.50;99.90
3310;DHT22;1667;53.238;10.394;2022-09-28T21:41:42;11.40;99.90
3310;DHT22;1667;53.238;10.394;2022-09-28T21:46:40;11.40;99.90
3310;DHT22;1667;53.238;10.394;2022-09-28T21:51:39;11.30;99.90
3310;DHT22;1667;53.238;10.394;2022-09-28T21:56:37;11.20;99.90
3310;DHT22;1667;53.238;10.394;2022-09-28T22:01:37;11.20;99.90
3310;DHT22;1667;53.238;10.394;2022-09-28T22:06:37;11.20;99.90
3310;DHT22;1667;53.238;10.394;2022-09-28T22:11:35;11.10;99.90
3310;DHT22;1667;53.238;10.394;2022-09-28T22:16:34;11.00;99.90
3310;DHT22;1667;53.238;10.394;2022-09-28T22:21:33;11.00;99.90
3310;DHT22;1667;53.238;10.394;2022-09-28T22:26:33;10.90;99.90
3310;DHT22;1667;53.238;10.394;2022-09-28T22:31:33;10.90;99.90
3310;DHT22;1667;53.238;10.394;2022-09-28T22:36:33;10.80;99.90
3310;DHT22;1667;53.238;10.394;2022-09-28T22:41:32;10.80;99.90
3310;DHT22;1667;53.238;10.394;2022-09-28T22:46:30;10.70;99.90
3310;DHT22;1667;53.238;10.394;2022-09-28T22:51:30;10.70;99.90
3310;DHT22;1667;53.238;10.394;2022-09-28T22:56:29;10.70;99.90
3310;DHT22;1667;53.238;10.394;2022-09-28T23:01:28;10.60;99.90
3310;DHT22;1667;53.238;10.394;2022-09-28T23:06:28;10.60;99.90
3310;DHT22;1667;53.238;10.394;2022-09-28T23:11:29;10.50;99.90
3310;DHT22;1667;53.238;10.394;2022-09-28T23:16:27;10.50;99.90
3310;DHT22;1667;53.238;10.394;2022-09-28T23:21:27;10.40;99.90
3310;DHT22;1667;53.238;10.394;2022-09-28T23:26:27;10.40;99.90
3310;DHT22;1667;53.238;10.394;2022-09-28T23:31:28;10.30;99.90
3310;DHT22;1667;53.238;10.394;2022-09-28T23:36:27;10.30;99.90
3310;DHT22;1667;53.238;10.394;2022-09-28T23:41:25;10.30;99.90
3310;DHT22;1667;53.238;10.394;2022-09-28T23:46:24;10.20;99.90
3310;DHT22;1667;53.238;10.394;2022-09-28T23:51:23;10.10;99.90
3310;DHT22;1667;53.238;10.394;2022-09-28T23:56:21;10.10;99.90
